createdAt,value
2022-12-13T00:51:39.653Z,73.36
2022-12-13T01:52:31.483Z,72.79
2022-12-13T01:55:43.237Z,72.83
2022-12-13T02:29:30.548Z,72.97
2022-12-13T02:32:44.722Z,73.20
2022-12-13T02:35:31.900Z,73.12
2022-12-13T03:32:41.553Z,72.27
2022-12-13T03:47:50.529Z,71.69
2022-12-13T03:57:37.353Z,71.29
2022-12-13T04:00:53.356Z,71.66
2022-12-13T04:11:13.372Z,71.79
2022-12-13T04:14:22.322Z,72.07
2022-12-13T04:17:19.002Z,71.99
2022-12-13T04:20:05.770Z,71.73
2022-12-13T04:23:09.822Z,71.62
2022-12-13T04:26:24.758Z,71.67
2022-12-13T04:29:08.304Z,71.77
2022-12-13T04:32:26.831Z,71.75
2022-12-13T04:35:47.496Z,71.84
2022-12-13T04:38:29.771Z,72.01
2022-12-13T04:41:43.498Z,71.54
2022-12-13T04:44:46.245Z,71.54
2022-12-13T04:48:00.341Z,72.06
2022-12-13T04:50:56.375Z,71.80
2022-12-13T04:57:31.524Z,71.52
2022-12-13T05:01:16.353Z,71.54
2022-12-13T05:03:33.798Z,71.71
2022-12-13T05:06:44.728Z,71.42
2022-12-13T05:09:30.243Z,71.41
2022-12-13T05:12:44.016Z,71.40
2022-12-13T05:15:35.820Z,71.48
2022-12-13T07:15:45.444Z,71.01
2022-12-13T07:19:35.621Z,71.00
2022-12-13T07:30:44.828Z,70.55
2022-12-13T07:56:04.483Z,71.64
2022-12-13T08:14:03.793Z,72.07
2022-12-13T09:42:01.101Z,73.70
2022-12-13T09:44:44.009Z,73.72
2022-12-13T09:47:23.985Z,73.58
2022-12-13T09:49:53.876Z,73.31
2022-12-13T09:52:26.032Z,73.22
2022-12-13T09:55:02.148Z,73.06
2022-12-13T09:57:34.373Z,72.97
2022-12-13T10:00:06.606Z,72.89
2022-12-13T10:02:45.625Z,72.92
2022-12-13T10:05:22.281Z,72.83
2022-12-13T10:07:55.967Z,72.88
2022-12-13T10:10:23.847Z,73.24
2022-12-13T10:12:59.358Z,73.20
2022-12-13T10:15:28.361Z,72.35
2022-12-13T10:17:56.683Z,72.12
2022-12-13T10:20:29.012Z,71.76
2022-12-13T10:23:31.170Z,71.68
2022-12-13T10:25:50.734Z,71.02
2022-12-13T10:28:27.402Z,71.14
2022-12-13T10:30:56.182Z,70.88
2022-12-13T10:33:27.103Z,70.79
2022-12-13T10:36:06.882Z,70.66
2022-12-13T10:38:38.363Z,70.73
2022-12-13T10:41:30.899Z,70.17
2022-12-13T10:44:16.040Z,70.09
2022-12-13T10:46:50.121Z,69.89
2022-12-13T10:49:20.888Z,69.99
2022-12-13T10:51:50.359Z,70.14
2022-12-13T10:54:23.314Z,69.84
2022-12-13T10:56:53.998Z,69.65
2022-12-13T10:59:32.051Z,69.65
2022-12-13T11:02:01.746Z,69.34
2022-12-13T11:04:31.655Z,69.26
2022-12-13T11:07:01.228Z,69.34
2022-12-13T11:09:39.102Z,69.30
2022-12-13T11:12:15.226Z,68.61
2022-12-13T11:14:56.698Z,68.30
2022-12-13T11:17:27.550Z,68.32
2022-12-13T11:19:58.602Z,67.90
2022-12-13T11:22:29.678Z,67.43
2022-12-13T11:25:02.770Z,67.83
2022-12-13T11:27:48.107Z,67.83
2022-12-13T11:30:37.453Z,67.36
2022-12-13T11:33:15.631Z,67.36
2022-12-13T11:35:58.865Z,67.10
2022-12-13T11:38:34.827Z,67.18
2022-12-13T11:41:12.743Z,67.01
2022-12-13T11:44:04.673Z,66.70
2022-12-13T11:46:42.568Z,66.86
2022-12-13T11:49:20.453Z,66.74
2022-12-13T11:51:53.252Z,66.97
2022-12-13T11:54:30.756Z,66.82
2022-12-13T11:57:01.125Z,66.32
2022-12-13T11:59:42.319Z,65.90
2022-12-13T12:02:20.662Z,65.72
2022-12-13T12:04:58.141Z,65.38
2022-12-13T12:07:35.719Z,65.11
2022-12-13T12:10:16.622Z,64.78
2022-12-13T12:12:51.725Z,64.88
2022-12-13T12:15:27.104Z,64.69
2022-12-13T12:17:57.218Z,64.65
2022-12-13T12:20:48.350Z,63.89
2022-12-13T12:23:24.410Z,64.60
2022-12-13T12:25:56.958Z,64.67
2022-12-13T12:28:35.899Z,64.79
2022-12-13T12:31:20.130Z,64.43
2022-12-13T12:34:07.286Z,64.39
2022-12-13T12:36:50.416Z,64.36
2022-12-13T12:39:40.551Z,64.32
2022-12-13T12:42:26.880Z,63.82
2022-12-13T12:45:54.756Z,63.84
2022-12-13T12:48:52.003Z,63.97
2022-12-13T12:51:22.410Z,64.23
2022-12-13T12:53:55.840Z,64.13
2022-12-13T12:56:39.893Z,64.51
2022-12-13T12:59:16.509Z,65.09
2022-12-13T13:01:56.295Z,65.25
2022-12-13T13:04:30.897Z,65.87
2022-12-13T13:07:23.367Z,65.81
2022-12-13T13:09:54.700Z,66.78
2022-12-13T13:12:28.966Z,66.49
2022-12-13T13:14:59.008Z,66.85
2022-12-13T13:17:53.639Z,66.93
2022-12-13T13:20:25.817Z,67.35
2022-12-13T13:23:17.478Z,67.62
2022-12-13T13:28:44.434Z,67.68
2022-12-13T13:31:12.823Z,68.22
2022-12-13T13:33:47.198Z,68.03
2022-12-13T13:36:47.876Z,67.65
2022-12-13T13:39:37.369Z,67.67
2022-12-13T13:42:19.283Z,67.68
2022-12-13T13:45:19.173Z,67.46
2022-12-13T13:47:58.895Z,67.43
2022-12-13T13:51:01.726Z,67.67
2022-12-13T13:54:01.243Z,67.54
2022-12-13T13:56:40.298Z,67.96
2022-12-13T13:59:42.286Z,67.94
2022-12-13T14:03:09.084Z,68.06
2022-12-13T14:06:29.027Z,67.84
2022-12-13T14:09:22.774Z,68.51
2022-12-13T14:12:43.161Z,68.24
2022-12-13T14:15:39.497Z,68.27
2022-12-13T14:18:46.015Z,67.92
2022-12-13T14:21:25.528Z,68.15
2022-12-13T14:24:09.426Z,68.55
2022-12-13T14:26:52.580Z,68.23
2022-12-13T14:29:30.655Z,68.67
2022-12-13T14:31:59.508Z,68.74
2022-12-13T14:34:29.541Z,68.88
2022-12-13T14:36:59.410Z,68.75
2022-12-13T14:39:29.591Z,68.58
2022-12-13T14:41:59.457Z,68.49
2022-12-13T14:44:31.426Z,69.07
2022-12-13T14:47:02.009Z,68.97
2022-12-13T14:56:28.773Z,69.32
2022-12-13T14:58:59.116Z,69.13
2022-12-13T15:01:31.442Z,69.37
2022-12-13T15:04:20.542Z,69.25
2022-12-13T15:06:51.784Z,69.53
2022-12-13T15:09:19.979Z,69.45
2022-12-13T15:11:51.941Z,69.63
2022-12-13T15:14:22.677Z,69.47
2022-12-13T15:16:54.627Z,69.16
2022-12-13T15:19:31.060Z,69.51
2022-12-13T15:22:03.907Z,69.16
2022-12-13T15:24:35.407Z,69.07
2022-12-13T15:27:04.474Z,69.22
2022-12-13T15:29:35.481Z,69.43
2022-12-13T15:32:05.736Z,69.47
2022-12-13T15:34:36.470Z,69.37
2022-12-13T15:37:07.792Z,69.29
2022-12-13T15:39:58.725Z,69.61
2022-12-13T15:42:32.345Z,69.91
2022-12-13T15:45:02.528Z,69.28
2022-12-13T15:47:32.850Z,69.44
2022-12-13T15:50:02.888Z,69.43
2022-12-13T15:52:35.557Z,69.60
2022-12-13T15:55:28.846Z,69.58
2022-12-13T15:57:58.736Z,69.92
2022-12-13T16:00:32.301Z,69.86
2022-12-13T16:03:08.935Z,70.04
2022-12-13T16:05:40.018Z,70.01
2022-12-13T16:08:17.468Z,70.17
2022-12-13T16:10:48.635Z,70.02
2022-12-13T16:13:26.695Z,70.05
2022-12-13T16:16:00.488Z,69.83
2022-12-13T16:18:46.643Z,70.20
2022-12-13T16:21:14.695Z,70.24
2022-12-13T16:23:48.711Z,69.97
2022-12-13T16:26:22.462Z,69.78
2022-12-13T16:28:50.476Z,69.99
2022-12-13T16:31:21.065Z,69.77
2022-12-13T16:33:50.785Z,70.08
2022-12-13T16:36:18.850Z,69.78
2022-12-13T16:38:46.922Z,69.96
2022-12-13T16:41:16.421Z,69.86
2022-12-13T16:43:52.822Z,69.97
2022-12-13T16:47:12.341Z,69.89
2022-12-13T16:49:20.581Z,69.83
2022-12-13T16:51:49.286Z,69.37
2022-12-13T16:54:18.992Z,69.58
2022-12-13T16:56:47.086Z,69.56
2022-12-13T16:59:16.085Z,69.69
2022-12-13T17:01:45.487Z,69.41
2022-12-13T17:04:21.003Z,69.35
2022-12-13T17:06:51.206Z,69.40
2022-12-13T17:09:23.465Z,69.52
2022-12-13T17:11:51.275Z,69.56
2022-12-13T17:14:19.319Z,69.16
2022-12-13T17:16:47.481Z,69.35
2022-12-13T17:19:17.523Z,69.37
2022-12-13T17:21:45.688Z,69.82
2022-12-13T17:24:13.709Z,69.37
2022-12-13T17:26:53.982Z,69.25
2022-12-13T17:29:22.913Z,69.26
2022-12-13T17:31:53.508Z,69.47
2022-12-13T17:34:23.114Z,69.24
2022-12-13T17:36:51.252Z,69.28
2022-12-13T17:39:19.763Z,69.17
2022-12-13T17:41:54.747Z,68.89
2022-12-13T17:44:24.506Z,68.63
2022-12-13T17:46:55.099Z,68.83
2022-12-13T17:49:25.439Z,68.78
2022-12-13T17:51:54.508Z,69.02
2022-12-13T17:54:23.713Z,68.74
2022-12-13T17:56:51.892Z,68.53
2022-12-13T17:59:20.099Z,68.75
2022-12-13T18:01:48.365Z,68.91
2022-12-13T18:04:16.824Z,68.45
2022-12-13T18:06:46.465Z,68.53
2022-12-13T18:09:15.034Z,68.76
2022-12-13T18:11:43.397Z,69.06
2022-12-13T18:14:11.445Z,68.81
2022-12-13T18:16:39.682Z,68.83
2022-12-13T18:19:09.455Z,68.87
2022-12-13T18:21:37.947Z,69.22
2022-12-13T18:24:08.147Z,68.87
2022-12-13T18:26:36.199Z,69.07
2022-12-13T18:29:04.947Z,68.90
2022-12-13T18:31:33.312Z,69.48
2022-12-13T18:34:01.609Z,69.27
2022-12-13T18:36:30.031Z,69.46
2022-12-13T18:38:58.175Z,69.23
2022-12-13T18:41:29.152Z,69.36
2022-12-13T18:43:59.492Z,69.49
2022-12-13T18:46:29.158Z,69.77
2022-12-13T18:48:57.867Z,69.49
2022-12-13T18:51:26.772Z,69.57
2022-12-13T18:53:56.932Z,69.47
2022-12-13T18:56:28.938Z,69.35
2022-12-13T18:58:59.594Z,69.22
2022-12-13T19:01:33.257Z,69.04
2022-12-13T19:04:04.165Z,69.58
2022-12-13T19:06:32.114Z,69.58
2022-12-13T19:10:06.882Z,69.58
2022-12-13T19:12:35.123Z,69.50
2022-12-13T19:15:05.123Z,69.19
2022-12-13T19:17:34.187Z,69.10
2022-12-13T19:20:02.378Z,69.63
2022-12-13T19:22:32.989Z,69.57
2022-12-13T19:25:01.090Z,69.68
2022-12-13T19:27:31.132Z,69.43
2022-12-13T19:29:59.501Z,69.51
2022-12-13T19:32:29.821Z,69.71
2022-12-13T19:34:58.157Z,69.55
2022-12-13T19:37:26.127Z,69.82
2022-12-13T19:39:55.758Z,69.62
2022-12-13T19:42:24.369Z,69.50
2022-12-13T19:44:53.506Z,69.68
2022-12-13T19:47:21.636Z,69.70
2022-12-13T19:49:51.749Z,69.77
2022-12-13T19:52:20.150Z,69.80
2022-12-13T19:54:48.137Z,69.66
2022-12-13T19:57:17.390Z,69.51
2022-12-13T19:59:45.937Z,69.19
2022-12-13T20:02:15.531Z,69.76
2022-12-13T20:04:44.789Z,69.53
2022-12-13T20:07:14.161Z,69.52
2022-12-13T20:09:42.370Z,69.54
2022-12-13T20:12:10.234Z,69.50
2022-12-13T20:14:38.303Z,69.41
2022-12-13T20:17:06.580Z,69.63
2022-12-13T20:19:37.286Z,69.25
2022-12-13T20:22:05.626Z,69.21
2022-12-13T20:24:45.868Z,69.32
2022-12-13T20:27:30.377Z,69.26
2022-12-13T20:29:58.595Z,69.29
2022-12-13T20:32:28.924Z,69.31
2022-12-13T20:35:13.313Z,69.65
2022-12-13T20:37:59.789Z,69.00
2022-12-13T20:40:29.574Z,69.45
2022-12-13T20:42:57.679Z,69.16
2022-12-13T20:45:34.949Z,69.00
2022-12-13T20:48:08.757Z,69.08
2022-12-13T20:50:40.288Z,68.80
2022-12-13T20:53:09.770Z,68.79
2022-12-13T20:55:39.365Z,68.88
2022-12-13T20:58:07.366Z,69.32
2022-12-13T21:00:37.585Z,68.88
2022-12-13T21:03:23.532Z,68.84
2022-12-13T21:05:53.802Z,68.55
2022-12-13T21:08:38.879Z,68.81
2022-12-13T21:11:26.919Z,68.40
2022-12-13T21:14:25.960Z,68.56
2022-12-13T21:17:15.163Z,69.01
2022-12-13T21:21:02.383Z,68.79
2022-12-13T21:30:33.144Z,68.56
2022-12-13T21:33:00.997Z,68.90
2022-12-13T21:35:28.866Z,68.66
2022-12-13T21:38:02.153Z,68.97
2022-12-13T21:40:32.941Z,68.80
2022-12-13T21:43:00.710Z,68.80
2022-12-13T21:45:28.586Z,68.78
2022-12-13T21:47:57.987Z,68.86
2022-12-13T21:50:25.791Z,69.12
2022-12-13T21:52:53.617Z,69.01
2022-12-13T21:58:24.654Z,69.21
2022-12-13T22:00:52.774Z,69.28
2022-12-13T22:03:22.077Z,69.05
2022-12-13T22:05:49.848Z,69.00
2022-12-13T22:08:17.710Z,68.57
2022-12-13T22:10:59.370Z,68.39
2022-12-13T22:13:48.423Z,68.25
2022-12-13T22:16:36.274Z,67.97
2022-12-13T22:19:05.725Z,67.78
2022-12-13T22:21:33.879Z,68.06
2022-12-13T22:24:01.766Z,67.65
2022-12-13T22:26:29.709Z,68.01
2022-12-13T22:29:00.710Z,67.65
2022-12-13T22:31:30.066Z,67.52
2022-12-13T22:33:58.490Z,67.46
2022-12-13T22:36:27.856Z,67.77
2022-12-13T22:38:55.706Z,67.63
2022-12-13T22:41:23.606Z,67.59
2022-12-13T22:43:51.586Z,67.58
2022-12-13T22:46:20.951Z,67.57
2022-12-13T22:48:51.755Z,67.64
2022-12-13T22:51:20.531Z,67.43
2022-12-13T22:53:51.480Z,67.34
2022-12-13T22:56:23.102Z,66.85
2022-12-13T22:58:54.325Z,66.69
2022-12-13T23:01:25.178Z,67.03
2022-12-13T23:03:53.660Z,67.71
2022-12-13T23:06:24.444Z,66.87
2022-12-13T23:08:56.292Z,66.96
2022-12-13T23:11:42.424Z,67.36
2022-12-13T23:14:13.149Z,67.33
2022-12-13T23:16:42.501Z,67.26
2022-12-13T23:19:40.511Z,67.11
2022-12-13T23:22:00.519Z,66.64
2022-12-13T23:24:30.026Z,67.12
2022-12-13T23:26:58.060Z,66.91
2022-12-13T23:29:26.160Z,66.75
2022-12-13T23:31:54.047Z,66.82
2022-12-13T23:34:22.016Z,66.50
2022-12-13T23:36:50.024Z,66.97
2022-12-13T23:39:18.116Z,66.76
2022-12-13T23:41:47.780Z,66.69
2022-12-13T23:44:15.639Z,66.23
2022-12-13T23:46:48.196Z,66.09
2022-12-13T23:49:17.162Z,65.82
2022-12-13T23:51:45.290Z,65.83
2022-12-13T23:54:17.931Z,65.49
2022-12-13T23:56:47.601Z,65.93
2022-12-13T23:59:15.901Z,65.56
